Terminal Aerodrome Forecast
Issued by NWS Twin Cities, MN

Current Version | Previous Version | Text Only | Print | Product List | Glossary On
Versions: 1 2 3 4 5 6 7 8 9 10 11 12 13 14 15 16 17 18 19 20
000
FTUS43 KMPX 312100 AAA
TAFEAU
TAF AMD
KEAU 312109Z 3121/0118 29007KT P6SM SCT045
      TEMPO 3122/0102 4SM -TSRA BR SCT030CB BKN050
     FM010200 VRB03KT P6SM SKC
     FM011500 26005KT P6SM SCT040 BKN060
      TEMPO 0115/0118 6SM -SHRA SCT020 BKN040=

USA.gov is the U.S. government's official web portal to all federal, state and local government web resources and services.